sensor_id;sensor_type;location;lat;lon;timestamp;temperature;humidity
44359;DHT22;30077;52.474;13.326;2023-07-29T00:04:41;18.10;99.90
44359;DHT22;30077;52.474;13.326;2023-07-29T00:09:42;18.10;99.90
44359;DHT22;30077;52.474;13.326;2023-07-29T00:14:43;18.00;99.90
44359;DHT22;30077;52.474;13.326;2023-07-29T00:19:43;18.00;99.90
44359;DHT22;30077;52.474;13.326;2023-07-29T00:24:44;18.00;99.90
44359;DHT22;30077;52.474;13.326;2023-07-29T00:29:44;17.90;99.90
44359;DHT22;30077;52.474;13.326;2023-07-29T00:34:45;17.90;99.90
44359;DHT22;30077;52.474;13.326;2023-07-29T00:39:46;17.90;99.90
44359;DHT22;30077;52.474;13.326;2023-07-29T00:44:46;17.80;99.90
44359;DHT22;30077;52.474;13.326;2023-07-29T00:49:47;17.80;99.90
44359;DHT22;30077;52.474;13.326;2023-07-29T00:54:48;17.80;99.90
44359;DHT22;30077;52.474;13.326;2023-07-29T00:59:49;17.80;99.90
44359;DHT22;30077;52.474;13.326;2023-07-29T01:04:57;17.70;99.90
44359;DHT22;30077;52.474;13.326;2023-07-29T01:10:31;17.70;99.90
44359;DHT22;30077;52.474;13.326;2023-07-29T01:15:55;17.70;99.90
44359;DHT22;30077;52.474;13.326;2023-07-29T01:21:00;17.70;99.90
44359;DHT22;30077;52.474;13.326;2023-07-29T01:26:04;17.60;99.90
44359;DHT22;30077;52.474;13.326;2023-07-29T01:31:34;17.60;99.90
44359;DHT22;30077;52.474;13.326;2023-07-29T01:36:42;17.60;99.90
44359;DHT22;30077;52.474;13.326;2023-07-29T01:41:43;17.50;99.90
44359;DHT22;30077;52.474;13.326;2023-07-29T01:46:45;17.50;99.90
44359;DHT22;30077;52.474;13.326;2023-07-29T01:51:46;17.50;99.90
44359;DHT22;30077;52.474;13.326;2023-07-29T01:56:46;17.50;99.90
44359;DHT22;30077;52.474;13.326;2023-07-29T02:01:47;17.50;99.90
44359;DHT22;30077;52.474;13.326;2023-07-29T02:06:49;17.40;99.90
44359;DHT22;30077;52.474;13.326;2023-07-29T02:11:49;17.40;99.90
44359;DHT22;30077;52.474;13.326;2023-07-29T02:16:50;17.30;99.90
44359;DHT22;30077;52.474;13.326;2023-07-29T02:21:51;17.30;99.90
44359;DHT22;30077;52.474;13.326;2023-07-29T02:26:52;17.40;99.90
44359;DHT22;30077;52.474;13.326;2023-07-29T02:31:52;17.20;99.90
44359;DHT22;30077;52.474;13.326;2023-07-29T02:36:53;17.30;99.90
44359;DHT22;30077;52.474;13.326;2023-07-29T02:41:54;17.20;99.90
44359;DHT22;30077;52.474;13.326;2023-07-29T02:46:56;17.20;99.90
44359;DHT22;30077;52.474;13.326;2023-07-29T02:51:56;17.20;99.90
44359;DHT22;30077;52.474;13.326;2023-07-29T02:56:58;17.20;99.90
44359;DHT22;30077;52.474;13.326;2023-07-29T03:01:58;17.20;99.90
44359;DHT22;30077;52.474;13.326;2023-07-29T03:06:59;17.20;99.90
44359;DHT22;30077;52.474;13.326;2023-07-29T03:12:00;17.20;99.90
44359;DHT22;30077;52.474;13.326;2023-07-29T03:17:04;17.20;99.90
44359;DHT22;30077;52.474;13.326;2023-07-29T03:22:04;17.20;99.90
44359;DHT22;30077;52.474;13.326;2023-07-29T03:27:05;17.20;99.90
44359;DHT22;30077;52.474;13.326;2023-07-29T03:32:06;17.20;99.90
44359;DHT22;30077;52.474;13.326;2023-07-29T03:37:07;17.20;99.90
44359;DHT22;30077;52.474;13.326;2023-07-29T03:42:07;17.20;99.90
44359;DHT22;30077;52.474;13.326;2023-07-29T03:47:08;17.20;99.90
44359;DHT22;30077;52.474;13.326;2023-07-29T03:52:09;17.20;99.90
44359;DHT22;30077;52.474;13.326;2023-07-29T03:57:10;17.20;99.90
44359;DHT22;30077;52.474;13.326;2023-07-29T04:02:11;17.30;99.90
44359;DHT22;30077;52.474;13.326;2023-07-29T04:07:11;17.40;99.90
44359;DHT22;30077;52.474;13.326;2023-07-29T04:12:12;17.50;99.90
44359;DHT22;30077;52.474;13.326;2023-07-29T04:17:13;17.60;99.90
44359;DHT22;30077;52.474;13.326;2023-07-29T04:22:15;17.80;99.90
44359;DHT22;30077;52.474;13.326;2023-07-29T04:27:16;18.00;99.90
44359;DHT22;30077;52.474;13.326;2023-07-29T04:32:17;18.20;99.90
44359;DHT22;30077;52.474;13.326;2023-07-29T04:37:17;18.40;99.90
44359;DHT22;30077;52.474;13.326;2023-07-29T04:42:18;18.60;99.90
44359;DHT22;30077;52.474;13.326;2023-07-29T04:47:19;18.60;99.90
44359;DHT22;30077;52.474;13.326;2023-07-29T04:52:19;18.60;99.90
44359;DHT22;30077;52.474;13.326;2023-07-29T04:57:21;18.80;99.90
44359;DHT22;30077;52.474;13.326;2023-07-29T05:02:21;19.00;99.90
44359;DHT22;30077;52.474;13.326;2023-07-29T05:07:22;19.20;99.90
44359;DHT22;30077;52.474;13.326;2023-07-29T05:12:23;19.10;99.90
44359;DHT22;30077;52.474;13.326;2023-07-29T05:17:24;19.10;99.90
44359;DHT22;30077;52.474;13.326;2023-07-29T05:22:24;19.10;99.90
44359;DHT22;30077;52.474;13.326;2023-07-29T05:27:25;19.50;99.90
44359;DHT22;30077;52.474;13.326;2023-07-29T05:32:26;19.70;99.90
44359;DHT22;30077;52.474;13.326;2023-07-29T05:37:27;19.90;99.90
44359;DHT22;30077;52.474;13.326;2023-07-29T05:42:27;19.80;99.90
44359;DHT22;30077;52.474;13.326;2023-07-29T05:47:28;19.80;99.90
44359;DHT22;30077;52.474;13.326;2023-07-29T05:52:28;19.90;99.90
44359;DHT22;30077;52.474;13.326;2023-07-29T05:57:29;20.00;99.90
44359;DHT22;30077;52.474;13.326;2023-07-29T06:02:30;20.00;99.90
44359;DHT22;30077;52.474;13.326;2023-07-29T06:07:30;20.00;99.90
44359;DHT22;30077;52.474;13.326;2023-07-29T06:12:33;20.10;99.90
44359;DHT22;30077;52.474;13.326;2023-07-29T06:17:34;20.30;99.90
44359;DHT22;30077;52.474;13.326;2023-07-29T06:22:34;20.40;99.90
44359;DHT22;30077;52.474;13.326;2023-07-29T06:27:35;20.40;99.90
44359;DHT22;30077;52.474;13.326;2023-07-29T06:32:36;20.70;99.90
44359;DHT22;30077;52.474;13.326;2023-07-29T06:37:37;20.80;99.90
44359;DHT22;30077;52.474;13.326;2023-07-29T06:42:37;20.90;99.90
44359;DHT22;30077;52.474;13.326;2023-07-29T06:47:38;21.10;99.90
44359;DHT22;30077;52.474;13.326;2023-07-29T06:52:39;21.30;99.90
44359;DHT22;30077;52.474;13.326;2023-07-29T06:57:40;21.50;99.90
44359;DHT22;30077;52.474;13.326;2023-07-29T07:02:41;21.80;99.90
44359;DHT22;30077;52.474;13.326;2023-07-29T07:07:42;22.30;99.90
44359;DHT22;30077;52.474;13.326;2023-07-29T07:12:42;22.50;99.90
44359;DHT22;30077;52.474;13.326;2023-07-29T07:17:43;22.60;99.90
44359;DHT22;30077;52.474;13.326;2023-07-29T07:22:44;22.80;99.90
44359;DHT22;30077;52.474;13.326;2023-07-29T07:27:45;22.70;99.90
44359;DHT22;30077;52.474;13.326;2023-07-29T07:32:45;22.90;99.90
44359;DHT22;30077;52.474;13.326;2023-07-29T07:37:46;22.90;99.90
44359;DHT22;30077;52.474;13.326;2023-07-29T07:42:48;22.80;99.90
44359;DHT22;30077;52.474;13.326;2023-07-29T07:47:49;22.90;99.90
44359;DHT22;30077;52.474;13.326;2023-07-29T07:52:52;23.00;99.90
44359;DHT22;30077;52.474;13.326;2023-07-29T07:57:52;22.90;99.90
44359;DHT22;30077;52.474;13.326;2023-07-29T08:02:53;22.80;99.90
44359;DHT22;30077;52.474;13.326;2023-07-29T08:07:54;22.90;99.90
44359;DHT22;30077;52.474;13.326;2023-07-29T08:12:55;23.10;99.90
44359;DHT22;30077;52.474;13.326;2023-07-29T08:17:55;23.40;99.90
44359;DHT22;30077;52.474;13.326;2023-07-29T08:22:56;24.20;99.90
44359;DHT22;30077;52.474;13.326;2023-07-29T08:27:57;24.80;99.90
44359;DHT22;30077;52.474;13.326;2023-07-29T08:32:57;25.20;99.90
44359;DHT22;30077;52.474;13.326;2023-07-29T08:37:58;25.20;99.90
44359;DHT22;30077;52.474;13.326;2023-07-29T08:43:03;25.10;99.90
44359;DHT22;30077;52.474;13.326;2023-07-29T08:48:08;25.10;99.90
44359;DHT22;30077;52.474;13.326;2023-07-29T08:53:10;25.00;99.90
44359;DHT22;30077;52.474;13.326;2023-07-29T08:58:12;24.90;99.90
44359;DHT22;30077;52.474;13.326;2023-07-29T09:03:12;25.20;99.90
44359;DHT22;30077;52.474;13.326;2023-07-29T09:08:14;25.50;99.90
44359;DHT22;30077;52.474;13.326;2023-07-29T09:13:15;25.70;99.90
44359;DHT22;30077;52.474;13.326;2023-07-29T09:18:18;26.00;99.90
44359;DHT22;30077;52.474;13.326;2023-07-29T09:23:20;26.00;99.90
44359;DHT22;30077;52.474;13.326;2023-07-29T09:28:21;26.30;99.90
44359;DHT22;30077;52.474;13.326;2023-07-29T09:33:25;26.60;99.90
44359;DHT22;30077;52.474;13.326;2023-07-29T09:38:27;26.70;99.90
44359;DHT22;30077;52.474;13.326;2023-07-29T09:43:33;26.70;99.90
44359;DHT22;30077;52.474;13.326;2023-07-29T09:48:36;26.80;99.90
44359;DHT22;30077;52.474;13.326;2023-07-29T09:53:45;26.80;99.90
44359;DHT22;30077;52.474;13.326;2023-07-29T09:58:48;26.80;99.90
44359;DHT22;30077;52.474;13.326;2023-07-29T10:03:48;27.00;99.90
44359;DHT22;30077;52.474;13.326;2023-07-29T10:08:50;27.20;99.90
44359;DHT22;30077;52.474;13.326;2023-07-29T10:13:52;27.20;99.90
44359;DHT22;30077;52.474;13.326;2023-07-29T10:18:54;27.30;99.90
44359;DHT22;30077;52.474;13.326;2023-07-29T10:24:01;27.30;99.90
44359;DHT22;30077;52.474;13.326;2023-07-29T10:29:04;27.00;99.90
44359;DHT22;30077;52.474;13.326;2023-07-29T10:34:09;27.10;99.90
44359;DHT22;30077;52.474;13.326;2023-07-29T10:39:11;27.50;99.90
44359;DHT22;30077;52.474;13.326;2023-07-29T10:49:40;27.60;99.90
44359;DHT22;30077;52.474;13.326;2023-07-29T10:54:42;27.50;99.90
44359;DHT22;30077;52.474;13.326;2023-07-29T10:59:57;26.90;99.90
44359;DHT22;30077;52.474;13.326;2023-07-29T11:04:59;26.40;99.90
44359;DHT22;30077;52.474;13.326;2023-07-29T11:10:03;25.70;99.90
44359;DHT22;30077;52.474;13.326;2023-07-29T11:20:11;22.70;99.90
44359;DHT22;30077;52.474;13.326;2023-07-29T11:25:14;21.60;99.90
44359;DHT22;30077;52.474;13.326;2023-07-29T11:30:16;21.10;99.90
44359;DHT22;30077;52.474;13.326;2023-07-29T11:35:18;20.80;99.90
44359;DHT22;30077;52.474;13.326;2023-07-29T11:40:20;21.00;99.90
44359;DHT22;30077;52.474;13.326;2023-07-29T11:45:22;21.00;99.90
44359;DHT22;30077;52.474;13.326;2023-07-29T11:50:23;21.10;99.90
44359;DHT22;30077;52.474;13.326;2023-07-29T11:55:24;21.00;99.90
44359;DHT22;30077;52.474;13.326;2023-07-29T12:00:25;20.70;99.90
44359;DHT22;30077;52.474;13.326;2023-07-29T12:05:26;20.50;99.90
44359;DHT22;30077;52.474;13.326;2023-07-29T12:10:27;20.80;99.90
44359;DHT22;30077;52.474;13.326;2023-07-29T12:15:29;21.10;99.90
44359;DHT22;30077;52.474;13.326;2023-07-29T12:20:30;21.10;99.90
44359;DHT22;30077;52.474;13.326;2023-07-29T12:25:31;21.10;99.90
44359;DHT22;30077;52.474;13.326;2023-07-29T12:30:31;21.40;99.90
44359;DHT22;30077;52.474;13.326;2023-07-29T12:35:37;21.60;99.90
44359;DHT22;30077;52.474;13.326;2023-07-29T12:40:39;22.00;99.90
44359;DHT22;30077;52.474;13.326;2023-07-29T12:45:40;22.60;99.90
44359;DHT22;30077;52.474;13.326;2023-07-29T12:50:42;23.10;99.90
44359;DHT22;30077;52.474;13.326;2023-07-29T12:55:43;23.50;99.90
44359;DHT22;30077;52.474;13.326;2023-07-29T13:00:43;23.60;99.90
44359;DHT22;30077;52.474;13.326;2023-07-29T13:05:44;23.50;99.90
44359;DHT22;30077;52.474;13.326;2023-07-29T13:10:45;23.40;99.90
44359;DHT22;30077;52.474;13.326;2023-07-29T13:15:45;23.40;99.90
44359;DHT22;30077;52.474;13.326;2023-07-29T13:20:46;23.30;99.90
44359;DHT22;30077;52.474;13.326;2023-07-29T13:25:47;23.20;99.90
44359;DHT22;30077;52.474;13.326;2023-07-29T13:30:47;23.30;99.90
44359;DHT22;30077;52.474;13.326;2023-07-29T13:35:48;23.70;99.90
44359;DHT22;30077;52.474;13.326;2023-07-29T13:40:49;24.10;99.90
44359;DHT22;30077;52.474;13.326;2023-07-29T13:45:51;24.70;99.90
44359;DHT22;30077;52.474;13.326;2023-07-29T13:50:52;25.00;99.90
44359;DHT22;30077;52.474;13.326;2023-07-29T13:55:52;25.40;99.90
44359;DHT22;30077;52.474;13.326;2023-07-29T14:00:53;25.60;99.90
44359;DHT22;30077;52.474;13.326;2023-07-29T14:05:54;25.70;99.90
44359;DHT22;30077;52.474;13.326;2023-07-29T14:10:54;25.80;99.90
44359;DHT22;30077;52.474;13.326;2023-07-29T14:15:55;26.00;99.90
44359;DHT22;30077;52.474;13.326;2023-07-29T14:20:55;25.70;99.90
44359;DHT22;30077;52.474;13.326;2023-07-29T14:25:56;25.70;99.90
44359;DHT22;30077;52.474;13.326;2023-07-29T14:30:57;25.70;99.90
44359;DHT22;30077;52.474;13.326;2023-07-29T14:35:58;25.70;99.90
44359;DHT22;30077;52.474;13.326;2023-07-29T14:40:59;25.50;99.90
44359;DHT22;30077;52.474;13.326;2023-07-29T14:46:00;25.40;99.90
44359;DHT22;30077;52.474;13.326;2023-07-29T14:51:02;25.10;99.90
44359;DHT22;30077;52.474;13.326;2023-07-29T14:56:02;24.80;99.90
44359;DHT22;30077;52.474;13.326;2023-07-29T15:01:03;24.70;99.90
44359;DHT22;30077;52.474;13.326;2023-07-29T15:06:04;24.40;99.90
44359;DHT22;30077;52.474;13.326;2023-07-29T15:11:04;24.30;99.90
44359;DHT22;30077;52.474;13.326;2023-07-29T15:16:06;24.30;99.90
44359;DHT22;30077;52.474;13.326;2023-07-29T15:21:06;24.30;99.90
44359;DHT22;30077;52.474;13.326;2023-07-29T15:26:07;24.10;99.90
44359;DHT22;30077;52.474;13.326;2023-07-29T15:31:08;23.90;99.90
44359;DHT22;30077;52.474;13.326;2023-07-29T15:36:10;23.50;99.90
44359;DHT22;30077;52.474;13.326;2023-07-29T15:41:11;21.70;99.90
44359;DHT22;30077;52.474;13.326;2023-07-29T15:46:12;19.60;99.90
44359;DHT22;30077;52.474;13.326;2023-07-29T15:51:12;18.70;99.90
44359;DHT22;30077;52.474;13.326;2023-07-29T15:56:13;18.60;99.90
44359;DHT22;30077;52.474;13.326;2023-07-29T16:01:14;18.80;99.90
44359;DHT22;30077;52.474;13.326;2023-07-29T16:06:15;19.40;99.90
44359;DHT22;30077;52.474;13.326;2023-07-29T16:11:15;20.40;99.90
44359;DHT22;30077;52.474;13.326;2023-07-29T16:16:16;22.30;99.90
44359;DHT22;30077;52.474;13.326;2023-07-29T16:21:18;22.70;99.90
44359;DHT22;30077;52.474;13.326;2023-07-29T16:26:21;22.80;99.90
44359;DHT22;30077;52.474;13.326;2023-07-29T16:31:22;23.30;99.90
44359;DHT22;30077;52.474;13.326;2023-07-29T16:36:23;23.70;99.90
44359;DHT22;30077;52.474;13.326;2023-07-29T16:41:24;24.70;99.90
44359;DHT22;30077;52.474;13.326;2023-07-29T16:46:24;24.30;99.90
44359;DHT22;30077;52.474;13.326;2023-07-29T16:51:26;23.90;99.90
44359;DHT22;30077;52.474;13.326;2023-07-29T16:56:27;24.60;99.90
44359;DHT22;30077;52.474;13.326;2023-07-29T17:01:28;24.50;99.90
44359;DHT22;30077;52.474;13.326;2023-07-29T17:06:28;24.50;99.90
44359;DHT22;30077;52.474;13.326;2023-07-29T17:11:29;24.50;99.90
44359;DHT22;30077;52.474;13.326;2023-07-29T17:16:30;24.50;99.90
44359;DHT22;30077;52.474;13.326;2023-07-29T17:21:31;24.60;99.90
44359;DHT22;30077;52.474;13.326;2023-07-29T17:26:31;24.50;99.90
44359;DHT22;30077;52.474;13.326;2023-07-29T17:31:32;24.60;99.90
44359;DHT22;30077;52.474;13.326;2023-07-29T17:36:33;24.30;99.90
44359;DHT22;30077;52.474;13.326;2023-07-29T17:41:34;24.00;99.90
44359;DHT22;30077;52.474;13.326;2023-07-29T17:46:34;23.80;99.90
44359;DHT22;30077;52.474;13.326;2023-07-29T17:51:35;23.70;99.90
44359;DHT22;30077;52.474;13.326;2023-07-29T17:56:36;23.60;99.90
44359;DHT22;30077;52.474;13.326;2023-07-29T18:01:36;23.40;99.90
44359;DHT22;30077;52.474;13.326;2023-07-29T18:06:37;23.30;99.90
44359;DHT22;30077;52.474;13.326;2023-07-29T18:11:38;23.20;99.90
44359;DHT22;30077;52.474;13.326;2023-07-29T18:16:41;23.00;99.90
44359;DHT22;30077;52.474;13.326;2023-07-29T18:21:42;22.80;99.90
44359;DHT22;30077;52.474;13.326;2023-07-29T18:26:43;22.60;99.90
44359;DHT22;30077;52.474;13.326;2023-07-29T18:31:43;22.30;99.90
44359;DHT22;30077;52.474;13.326;2023-07-29T18:36:44;22.00;99.90
44359;DHT22;30077;52.474;13.326;2023-07-29T18:41:45;21.70;99.90
44359;DHT22;30077;52.474;13.326;2023-07-29T18:46:46;21.60;99.90
44359;DHT22;30077;52.474;13.326;2023-07-29T18:51:49;21.50;99.90
44359;DHT22;30077;52.474;13.326;2023-07-29T18:56:50;21.40;99.90
44359;DHT22;30077;52.474;13.326;2023-07-29T19:01:51;21.10;99.90
44359;DHT22;30077;52.474;13.326;2023-07-29T19:06:52;20.90;99.90
44359;DHT22;30077;52.474;13.326;2023-07-29T19:11:55;20.70;99.90
44359;DHT22;30077;52.474;13.326;2023-07-29T19:16:56;20.60;99.90
44359;DHT22;30077;52.474;13.326;2023-07-29T19:21:56;20.40;99.90
44359;DHT22;30077;52.474;13.326;2023-07-29T19:26:57;20.30;99.90
44359;DHT22;30077;52.474;13.326;2023-07-29T19:32:01;20.20;99.90
44359;DHT22;30077;52.474;13.326;2023-07-29T19:37:02;20.10;99.90
44359;DHT22;30077;52.474;13.326;2023-07-29T19:42:03;19.90;99.90
44359;DHT22;30077;52.474;13.326;2023-07-29T19:47:05;19.80;99.90
44359;DHT22;30077;52.474;13.326;2023-07-29T19:52:06;19.60;99.90
44359;DHT22;30077;52.474;13.326;2023-07-29T19:57:07;19.50;99.90
44359;DHT22;30077;52.474;13.326;2023-07-29T20:02:09;19.40;99.90
44359;DHT22;30077;52.474;13.326;2023-07-29T20:07:10;19.30;99.90
44359;DHT22;30077;52.474;13.326;2023-07-29T20:12:11;19.30;99.90
44359;DHT22;30077;52.474;13.326;2023-07-29T20:17:11;19.20;99.90
44359;DHT22;30077;52.474;13.326;2023-07-29T20:22:12;19.20;99.90
44359;DHT22;30077;52.474;13.326;2023-07-29T20:27:13;19.20;99.90
44359;DHT22;30077;52.474;13.326;2023-07-29T20:32:14;19.10;99.90
44359;DHT22;30077;52.474;13.326;2023-07-29T20:37:14;19.10;99.90
44359;DHT22;30077;52.474;13.326;2023-07-29T20:42:15;19.10;99.90
44359;DHT22;30077;52.474;13.326;2023-07-29T20:47:16;19.00;99.90
44359;DHT22;30077;52.474;13.326;2023-07-29T20:52:18;19.00;99.90
44359;DHT22;30077;52.474;13.326;2023-07-29T20:57:19;19.00;99.90
44359;DHT22;30077;52.474;13.326;2023-07-29T21:02:20;19.00;99.90
44359;DHT22;30077;52.474;13.326;2023-07-29T21:07:21;19.00;99.90
44359;DHT22;30077;52.474;13.326;2023-07-29T21:12:21;19.10;99.90
44359;DHT22;30077;52.474;13.326;2023-07-29T21:17:24;19.00;99.90
44359;DHT22;30077;52.474;13.326;2023-07-29T21:22:24;19.00;99.90
44359;DHT22;30077;52.474;13.326;2023-07-29T21:27:25;19.00;99.90
44359;DHT22;30077;52.474;13.326;2023-07-29T21:32:26;18.90;99.90
44359;DHT22;30077;52.474;13.326;2023-07-29T21:37:26;18.90;99.90
44359;DHT22;30077;52.474;13.326;2023-07-29T21:42:27;19.00;99.90
44359;DHT22;30077;52.474;13.326;2023-07-29T21:47:28;19.00;99.90
44359;DHT22;30077;52.474;13.326;2023-07-29T21:52:28;19.00;99.90
44359;DHT22;30077;52.474;13.326;2023-07-29T21:57:29;18.90;99.90
44359;DHT22;30077;52.474;13.326;2023-07-29T22:02:32;19.00;99.90
44359;DHT22;30077;52.474;13.326;2023-07-29T22:07:33;19.00;99.90
44359;DHT22;30077;52.474;13.326;2023-07-29T22:12:33;18.90;99.90
44359;DHT22;30077;52.474;13.326;2023-07-29T22:17:34;18.80;99.90
44359;DHT22;30077;52.474;13.326;2023-07-29T22:22:35;18.70;99.90
44359;DHT22;30077;52.474;13.326;2023-07-29T22:27:35;18.70;99.90
44359;DHT22;30077;52.474;13.326;2023-07-29T22:32:36;18.60;99.90
44359;DHT22;30077;52.474;13.326;2023-07-29T22:37:37;18.60;99.90
44359;DHT22;30077;52.474;13.326;2023-07-29T22:42:37;18.60;99.90
44359;DHT22;30077;52.474;13.326;2023-07-29T22:47:38;18.50;99.90
44359;DHT22;30077;52.474;13.326;2023-07-29T22:52:39;18.40;99.90
44359;DHT22;30077;52.474;13.326;2023-07-29T22:57:39;18.30;99.90
44359;DHT22;30077;52.474;13.326;2023-07-29T23:02:40;18.30;99.90
44359;DHT22;30077;52.474;13.326;2023-07-29T23:07:41;18.30;99.90
44359;DHT22;30077;52.474;13.326;2023-07-29T23:12:41;18.20;99.90
44359;DHT22;30077;52.474;13.326;2023-07-29T23:17:42;18.10;99.90
44359;DHT22;30077;52.474;13.326;2023-07-29T23:22:43;18.00;99.90
44359;DHT22;30077;52.474;13.326;2023-07-29T23:27:45;18.00;99.90
44359;DHT22;30077;52.474;13.326;2023-07-29T23:32:46;17.90;99.90
44359;DHT22;30077;52.474;13.326;2023-07-29T23:37:47;17.90;99.90
44359;DHT22;30077;52.474;13.326;2023-07-29T23:42:47;17.90;99.90
44359;DHT22;30077;52.474;13.326;2023-07-29T23:47:49;17.90;99.90
44359;DHT22;30077;52.474;13.326;2023-07-29T23:52:50;17.80;99.90
44359;DHT22;30077;52.474;13.326;2023-07-29T23:57:50;17.70;99.90
